Time;durP1;ratioP1;P1;durP2;ratioP2;P2;SDS_P1;SDS_P2;PMS_P1;PMS_P2;Temp;Humidity;BMP_temperature;BMP_pressure;BME280_temperature;BME280_humidity;BME280_pressure;Samples;Min_cycle;Max_cycle;Signal;HPM_P1;HPM_P2
2021/12/08 03:43:50;;;;;;;;;;;;;;;;;;;;;
2021/12/08 03:53:19;;;;;;;;;;;;;;;;;;;;;
2021/12/08 03:55:53;;;;;;;56.53;23.73;;;;;;;5.13;52.19;100289.75;5985205;23;111517;-79
2021/12/08 03:58:20;;;;;;;54.08;24.17;;;;;;;5.48;52.06;100292.47;6098770;23;96619;-78
2021/12/08 04:00:51;;;;;;;51.83;23.17;;;;;;;5.36;52.29;100297.13;6097132;23;98990;-78
2021/12/08 04:03:21;;;;;;;48.67;23.02;;;;;;;5.55;50.63;100287.97;6098781;23;98738;-78
2021/12/08 04:05:54;;;;;;;55.67;24.20;;;;;;;5.25;52.48;100272.94;6097873;23;97135;-79
2021/12/08 04:08:31;;;;;;;50.58;23.23;;;;;;;5.25;52.69;100280.78;6095942;23;97063;-79
2021/12/08 04:10:58;;;;;;;58.53;25.30;;;;;;;5.39;52.27;100270.84;6095389;23;98691;-78
2021/12/08 04:13:31;;;;;;;54.28;25.70;;;;;;;4.91;52.78;100267.53;6094659;23;98902;-80
2021/12/08 04:15:58;;;;;;;56.45;24.60;;;;;;;4.91;53.29;100268.38;6096270;23;96731;-77
2021/12/08 04:18:24;;;;;;;54.00;24.98;;;;;;;4.86;53.64;100274.59;6096078;23;96806;-78
2021/12/08 04:20:57;;;;;;;56.47;26.27;;;;;;;4.97;52.98;100275.25;6095794;23;99710;-78
2021/12/08 04:23:29;;;;;;;56.33;25.25;;;;;;;4.92;53.26;100267.50;6096577;23;97844;-78
2021/12/08 04:25:59;;;;;;;54.65;25.08;;;;;;;5.17;52.97;100268.72;6097521;23;96853;-78
2021/12/08 04:28:29;;;;;;;53.00;25.65;;;;;;;4.87;53.70;100282.41;6097069;23;97130;-77
2021/12/08 04:30:59;;;;;;;57.75;25.65;;;;;;;4.97;52.97;100273.50;6097083;23;98881;-78
2021/12/08 04:33:27;;;;;;;54.53;25.80;;;;;;;5.20;53.60;100271.25;6096806;23;99795;-78
2021/12/08 04:35:55;;;;;;;57.33;26.00;;;;;;;4.98;52.92;100282.22;6069040;23;96828;-80
2021/12/08 04:38:33;;;;;;;56.90;24.70;;;;;;;5.01;52.98;100277.75;6067482;23;96709;-77
2021/12/08 04:41:07;;;;;;;53.53;24.85;;;;;;;4.95;54.03;100275.28;6070867;23;98975;-78
2021/12/08 04:43:43;;;;;;;55.97;25.25;;;;;;;5.12;53.15;100280.19;6070493;23;100995;-77
2021/12/08 04:46:47;;;;;;;55.75;24.33;;;;;;;5.15;53.21;100277.47;6074032;23;97427;-79
2021/12/08 04:49:37;;;;;;;56.45;24.65;;;;;;;5.32;52.68;100282.34;6066355;23;96975;-80
2021/12/08 04:52:36;;;;;;;58.97;25.13;;;;;;;5.27;52.59;100286.84;6067369;23;98203;-79
2021/12/08 05:01:58;;;;;;;58.05;24.25;;;;;;;5.07;53.06;100280.25;6068381;23;97128;-79
2021/12/08 05:04:50;;;;;;;51.45;25.05;;;;;;;5.24;52.64;100287.78;6066732;23;98931;-79
2021/12/08 05:07:44;;;;;;;;;;;;;;;;;;;;;
2021/12/08 05:10:30;;;;;;;;;;;;;;;;;;;;;
2021/12/08 05:13:17;;;;;;;51.25;22.95;;;;;;;5.20;52.68;100292.22;6057618;23;113892;-79
2021/12/08 05:15:57;;;;;;;;;;;;;;;;;;;;;
2021/12/08 05:18:39;;;;;;;;;;;;;;;;;;;;;
2021/12/08 05:21:39;;;;;;;;;;;;;;;;;;;;;
2021/12/08 05:24:37;;;;;;;52.90;24.25;;;;;;;5.29;52.79;100278.06;6063387;23;114739;-79
2021/12/08 05:27:40;;;;;;;;;;;;;;;;;;;;;
2021/12/08 05:30:45;;;;;;;;;;;;;;;;;;;;;
2021/12/08 05:33:36;;;;;;;57.92;23.92;;;;;;;5.27;52.92;100281.59;6060456;23;112891;-79
2021/12/08 05:36:09;;;;;;;57.03;25.05;;;;;;;5.02;52.58;100279.50;5950306;23;96825;-79
2021/12/08 05:38:46;;;;;;;;;;;;;;;;;;;;;
2021/12/08 05:41:17;;;;;;;50.63;23.70;;;;;;;5.12;53.22;100265.31;6060939;23;127295;-81
2021/12/08 05:43:49;;;;;;;49.08;23.27;;;;;;;4.91;53.55;100268.38;6067511;23;96673;-78
2021/12/08 05:46:46;;;;;;;;;;;;;;;;;;;;;
2021/12/08 06:35:48;;;;;;;;;;;;;;;;;;;;;
2021/12/08 06:38:19;;;;;;;53.65;22.90;;;;;;;5.22;51.35;100259.00;5921801;23;114177;-78
2021/12/08 06:40:53;;;;;;;52.63;22.85;;;;;;;5.30;52.14;100265.81;6049315;23;99279;-79
2021/12/08 06:43:25;;;;;;;55.03;22.33;;;;;;;5.15;52.62;100267.88;6069279;23;98847;-80
2021/12/08 06:45:54;;;;;;;51.00;21.67;;;;;;;5.48;51.66;100281.13;6069143;23;96562;-79
2021/12/08 06:48:26;;;;;;;51.25;22.33;;;;;;;4.68;53.13;100281.03;6069436;23;96866;-78
2021/12/08 06:51:00;;;;;;;56.33;25.00;;;;;;;4.62;54.32;100289.00;6069114;23;101481;-78
2021/12/08 15:07:21;;;;;;;69.30;26.65;;;;;;;6.37;49.83;100139.06;6121259;22;97050;31
2021/12/08 15:10:10;;;;;;;73.97;28.00;;;;;;;6.68;49.37;100145.19;6093675;23;99366;-79
2021/12/08 15:12:39;;;;;;;70.38;27.50;;;;;;;6.53;49.19;100145.59;6087475;23;96730;-77
2021/12/08 15:15:14;;;;;;;71.32;27.90;;;;;;;6.71;49.24;100150.31;6093745;23;96764;-77
2021/12/08 15:17:41;;;;;;;64.25;27.45;;;;;;;6.94;48.16;100151.41;6093381;23;99148;-77
2021/12/08 15:20:09;;;;;;;65.50;24.90;;;;;;;6.26;48.79;100154.25;6095279;23;99333;-77
2021/12/08 15:22:42;;;;;;;66.38;26.52;;;;;;;6.18;48.85;100156.19;6094714;23;96965;-76
2021/12/08 15:25:13;;;;;;;68.47;26.80;;;;;;;6.42;49.00;100152.94;6094708;23;96788;-76
2021/12/08 15:27:42;;;;;;;69.93;26.67;;;;;;;6.11;49.97;100159.88;6093010;23;97813;-76
2021/12/08 15:30:10;;;;;;;72.88;27.90;;;;;;;6.12;49.93;100164.25;6093730;23;98925;-77
2021/12/08 15:32:37;;;;;;;66.88;28.02;;;;;;;6.73;48.58;100169.53;6093756;23;96948;-76
2021/12/08 15:35:05;;;;;;;68.65;28.60;;;;;;;6.89;47.97;100169.09;6092625;23;97061;-77
2021/12/08 15:37:33;;;;;;;66.88;26.15;;;;;;;6.83;48.00;100164.84;6093049;23;99031;-76
2021/12/08 15:40:01;;;;;;;72.00;27.60;;;;;;;7.10;47.33;100179.78;6093646;23;99008;-76
2021/12/08 15:42:33;;;;;;;68.65;28.05;;;;;;;6.79;47.59;100176.34;6094391;23;96743;-75
2021/12/08 15:45:01;;;;;;;68.72;27.20;;;;;;;7.01;47.65;100177.47;6094930;23;96909;-77
2021/12/08 15:47:28;;;;;;;61.67;25.67;;;;;;;6.57;48.24;100168.22;6095740;23;99658;-75
2021/12/08 15:49:55;;;;;;;68.28;26.05;;;;;;;6.22;49.10;100168.34;6104013;23;97666;-77
2021/12/08 15:52:24;;;;;;;68.60;28.50;;;;;;;6.26;49.70;100172.59;6094256;23;96709;-77
2021/12/08 15:54:51;;;;;;;71.20;27.85;;;;;;;6.61;48.98;100169.88;6093675;23;96629;-76
2021/12/08 15:57:22;;;;;;;62.70;26.55;;;;;;;6.45;48.77;100165.94;6093171;23;99018;-77
2021/12/08 15:59:51;;;;;;;68.93;27.98;;;;;;;6.44;49.15;100161.59;6093751;23;99862;-77
2021/12/08 16:02:22;;;;;;;64.28;26.23;;;;;;;6.46;48.97;100158.94;6092662;23;97129;-76
2021/12/08 16:04:51;;;;;;;76.93;29.15;;;;;;;6.66;48.52;100154.00;6093188;23;96788;-76
2021/12/08 16:07:23;;;;;;;66.50;26.83;;;;;;;6.63;48.05;100146.22;6093134;23;99081;-76
2021/12/08 16:09:49;;;;;;;66.28;27.10;;;;;;;6.51;48.55;100160.53;6094870;23;98974;-75
2021/12/08 16:12:16;;;;;;;69.32;28.38;;;;;;;6.46;48.48;100157.19;6096666;23;96687;-76
2021/12/08 16:14:53;;;;;;;67.88;26.65;;;;;;;6.61;47.97;100159.38;6093826;23;96849;-76
2021/12/08 16:17:22;;;;;;;66.55;28.08;;;;;;;6.89;47.38;100163.84;6093163;23;99458;-76
2021/12/08 16:19:51;;;;;;;65.82;28.15;;;;;;;6.56;48.23;100166.53;6092895;23;97590;-76
2021/12/08 16:22:22;;;;;;;66.35;26.42;;;;;;;6.22;48.44;100184.97;6091363;23;96726;-76
2021/12/08 16:24:49;;;;;;;68.53;27.90;;;;;;;6.04;50.03;100171.47;6093414;23;97230;-75
2021/12/08 16:27:18;;;;;;;73.65;27.70;;;;;;;5.99;49.26;100169.81;6093393;23;99122;-76
2021/12/08 16:29:47;;;;;;;67.82;27.15;;;;;;;6.16;49.48;100160.66;6093883;23;99060;-77
2021/12/08 16:32:16;;;;;;;68.40;27.98;;;;;;;6.51;48.40;100152.66;6097391;23;96685;-76
2021/12/08 16:34:44;;;;;;;68.63;27.70;;;;;;;6.33;48.44;100146.16;6095095;23;96580;-76
2021/12/08 16:37:13;;;;;;;74.35;29.25;;;;;;;5.99;49.72;100143.59;6093061;23;99443;-76
2021/12/08 16:39:54;;;;;;;72.32;28.83;;;;;;;5.97;50.26;100131.44;6093257;23;98900;-76
2021/12/08 16:45:08;;;;;;;78.18;28.30;;;;;;;5.96;49.83;100143.69;6093056;23;96960;-76
2021/12/08 16:47:34;;;;;;;68.15;27.33;;;;;;;5.95;50.62;100135.84;6091659;23;99191;-76
2021/12/08 16:50:01;;;;;;;72.53;28.23;;;;;;;5.17;51.12;100135.13;6092548;23;98748;-76
2021/12/08 16:52:27;;;;;;;75.60;27.67;;;;;;;5.05;53.15;100134.56;6093361;23;96582;-77
2021/12/08 16:54:54;;;;;;;68.78;27.58;;;;;;;5.67;50.66;100133.03;6093411;23;96916;-77
2021/12/08 16:57:21;;;;;;;71.88;27.48;;;;;;;5.56;50.74;100129.84;6092986;23;98908;-76
2021/12/08 16:59:48;;;;;;;68.28;27.50;;;;;;;4.68;53.71;100137.09;6093309;23;99253;-76
2021/12/08 17:02:17;;;;;;;69.90;27.50;;;;;;;4.97;52.69;100119.00;6093839;23;96625;-76
2021/12/08 17:04:44;;;;;;;64.15;27.38;;;;;;;4.59;54.47;100119.00;6094422;23;96761;-76
2021/12/08 17:07:11;;;;;;;69.88;28.40;;;;;;;5.07;52.13;100115.28;6093673;23;98863;-76
2021/12/08 17:09:38;;;;;;;73.93;29.02;;;;;;;5.31;52.28;100102.50;6094714;23;98860;-79
2021/12/08 17:12:05;;;;;;;71.13;29.30;;;;;;;5.34;52.61;100126.00;6093085;23;96584;-79
2021/12/08 17:14:31;;;;;;;74.60;28.35;;;;;;;5.57;50.93;100128.94;6092564;23;96845;-77
2021/12/08 17:16:58;;;;;;;74.45;28.65;;;;;;;5.91;49.85;100135.06;6093161;23;99018;-76
2021/12/08 17:19:26;;;;;;;68.03;26.90;;;;;;;6.16;48.47;100142.28;6093227;23;99277;-76
2021/12/08 17:21:52;;;;;;;70.88;30.20;;;;;;;6.05;49.58;100142.56;6093867;23;97122;-76
2021/12/08 17:24:19;;;;;;;66.68;27.13;;;;;;;6.26;48.85;100138.50;6093796;23;97169;-77
2021/12/08 17:26:45;;;;;;;61.97;24.23;;;;;;;5.67;49.38;100146.13;6093083;23;98955;-76
2021/12/08 17:29:15;;;;;;;72.40;28.25;;;;;;;5.77;50.34;100157.28;6093561;23;99491;-76
2021/12/08 17:31:42;;;;;;;71.97;27.58;;;;;;;5.48;50.66;100160.59;6094298;23;96997;-77
2021/12/08 17:34:09;;;;;;;69.63;27.48;;;;;;;5.62;50.33;100174.22;6094959;23;96800;-75
2021/12/08 17:36:37;;;;;;;65.47;27.58;;;;;;;6.18;49.03;100171.94;6093971;23;99362;-76
2021/12/08 17:39:05;;;;;;;68.90;27.65;;;;;;;6.38;47.79;100172.28;6094378;23;98827;-77
2021/12/08 17:41:32;;;;;;;67.60;28.48;;;;;;;6.17;48.28;100186.81;6095940;23;97031;-77
2021/12/08 17:43:59;;;;;;;70.90;27.90;;;;;;;6.00;49.32;100182.03;6094422;23;96736;-77
2021/12/08 17:46:25;;;;;;;69.57;28.52;;;;;;;5.74;49.72;100186.16;6093812;23;101064;-77
2021/12/08 17:48:52;;;;;;;65.05;27.98;;;;;;;5.97;49.39;100181.25;6097355;23;98925;-77
2021/12/08 17:51:18;;;;;;;59.92;24.85;;;;;;;6.04;48.64;100174.09;6102312;23;96647;-76
2021/12/08 17:53:47;;;;;;;71.85;29.63;;;;;;;6.26;48.34;100164.75;6109310;23;96584;-76
2021/12/08 17:56:14;;;;;;;69.65;27.48;;;;;;;6.28;47.84;100165.56;6113882;23;98904;-77
2021/12/08 17:58:44;;;;;;;68.13;28.60;;;;;;;6.53;47.39;100161.34;6113005;23;99225;-76
2021/12/08 18:01:11;;;;;;;71.35;29.05;;;;;;;6.32;47.35;100159.31;6110340;23;96570;-78
2021/12/08 18:03:38;;;;;;;70.47;29.02;;;;;;;6.42;47.26;100158.19;6103129;23;96450;-76
2021/12/08 18:06:05;;;;;;;64.15;27.98;;;;;;;6.45;47.65;100149.34;6097633;23;98603;-77
2021/12/08 18:08:34;;;;;;;65.15;27.42;;;;;;;6.04;47.02;100145.25;6097884;23;97621;-77
2021/12/08 18:11:05;;;;;;;64.78;26.55;;;;;;;5.82;49.24;100150.16;6096314;23;96836;-78
2021/12/08 18:13:32;;;;;;;65.00;26.33;;;;;;;5.50;48.79;100158.81;6096874;23;96966;-77
2021/12/08 18:16:00;;;;;;;72.22;27.35;;;;;;;5.71;49.52;100163.50;6095473;23;99153;-77
2021/12/08 18:18:27;;;;;;;64.15;27.40;;;;;;;5.77;49.38;100166.00;6096925;23;97949;-76
2021/12/08 18:20:53;;;;;;;62.17;27.33;;;;;;;5.96;48.68;100182.16;6097773;23;96630;-77
2021/12/08 18:23:20;;;;;;;68.95;27.35;;;;;;;5.85;48.25;100187.63;6097204;23;96762;-78
2021/12/08 18:25:47;;;;;;;66.78;25.83;;;;;;;5.60;49.20;100181.25;6096331;23;98954;-78
2021/12/08 18:28:16;;;;;;;64.72;27.42;;;;;;;5.65;49.34;100173.28;6095260;23;98148;-76
2021/12/08 18:30:46;;;;;;;67.95;27.98;;;;;;;5.61;49.46;100172.50;6095394;23;96630;-79
2021/12/08 18:33:13;;;;;;;65.78;27.00;;;;;;;5.91;48.78;100177.00;6095170;23;96733;-77
2021/12/08 18:38:30;;;;;;;69.00;27.48;;;;;;;5.88;48.54;100176.25;6088572;23;98705;-77
2021/12/08 18:41:00;;;;;;;65.57;27.02;;;;;;;5.28;51.29;100152.34;6093843;23;96960;-77
2021/12/08 18:43:33;;;;;;;65.57;25.83;;;;;;;5.09;50.98;100150.16;6094988;23;97010;-77
2021/12/08 18:46:00;;;;;;;68.93;28.00;;;;;;;5.25;51.61;100160.28;6093704;23;98977;-77
2021/12/08 18:48:28;;;;;;;70.35;29.85;;;;;;;5.68;50.08;100171.47;6093893;23;99181;-77
2021/12/08 18:50:55;;;;;;;67.13;26.50;;;;;;;5.55;49.24;100191.88;6096505;23;96553;-79
2021/12/08 18:53:21;;;;;;;69.57;29.02;;;;;;;5.76;49.44;100195.72;6096842;23;96789;-77
2021/12/08 18:55:48;;;;;;;68.03;27.70;;;;;;;5.56;49.67;100209.31;6095044;23;99039;-79
2021/12/08 18:58:15;;;;;;;80.50;30.30;;;;;;;5.52;50.52;100226.00;6095793;23;99172;-78
2021/12/08 19:00:43;;;;;;;71.22;30.27;;;;;;;6.00;49.47;100216.13;6096701;23;97578;-77
2021/12/08 19:03:10;;;;;;;67.70;28.30;;;;;;;5.90;48.43;100209.41;6095649;23;96815;-77
2021/12/08 19:05:36;;;;;;;70.45;28.98;;;;;;;6.12;48.23;100207.06;6093862;23;99030;-78
2021/12/08 19:08:05;;;;;;;68.13;28.52;;;;;;;6.25;47.97;100212.84;6093895;23;98600;-79
2021/12/08 19:10:34;;;;;;;73.68;30.20;;;;;;;6.32;48.10;100214.41;6096387;23;96749;-76
2021/12/08 19:13:01;;;;;;;70.65;28.98;;;;;;;6.35;48.05;100201.25;6095712;23;96784;-77
2021/12/08 19:15:29;;;;;;;72.38;29.58;;;;;;;6.51;47.69;100204.28;6094104;23;101463;-76
2021/12/08 19:17:57;;;;;;;67.32;28.98;;;;;;;6.37;47.59;100212.53;6094780;23;98918;-77
2021/12/08 19:20:25;;;;;;;76.20;30.42;;;;;;;6.28;48.33;100218.03;6095330;23;96739;-79
2021/12/08 19:22:52;;;;;;;74.05;29.83;;;;;;;6.03;48.34;100233.56;6094663;23;97123;-77
2021/12/08 19:25:23;;;;;;;71.05;29.10;;;;;;;5.83;49.04;100231.41;6095716;23;99239;-78
2021/12/08 19:27:50;;;;;;;72.15;30.10;;;;;;;5.69;49.99;100230.00;6095672;23;98776;-78
2021/12/08 19:30:18;;;;;;;73.57;30.77;;;;;;;5.97;48.76;100238.97;6096181;23;96684;-78
2021/12/08 19:32:45;;;;;;;72.22;30.17;;;;;;;5.94;49.23;100244.25;6095013;23;96818;-80
2021/12/08 19:35:13;;;;;;;74.38;28.77;;;;;;;6.18;48.09;100251.50;6094243;23;99530;-81
2021/12/08 19:37:40;;;;;;;66.18;28.90;;;;;;;6.24;47.61;100260.97;6090803;23;99042;-76
2021/12/08 19:40:08;;;;;;;74.05;29.65;;;;;;;6.05;47.79;100259.72;6091352;23;97088;-77
2021/12/08 19:42:35;;;;;;;71.25;29.50;;;;;;;5.58;49.17;100261.69;6092310;23;96954;-78
2021/12/08 19:45:08;;;;;;;70.38;28.13;;;;;;;5.53;50.11;100251.31;6091664;23;98065;-78
2021/12/08 19:47:35;;;;;;;69.22;28.70;;;;;;;5.43;49.96;100247.19;6093399;23;98285;-77
2021/12/08 19:50:01;;;;;;;73.18;29.23;;;;;;;5.74;49.59;100247.34;6092222;23;97295;-76
2021/12/08 19:52:29;;;;;;;80.55;30.25;;;;;;;5.81;49.52;100243.66;6092938;23;96828;-77
2021/12/08 19:54:55;;;;;;;75.60;30.50;;;;;;;5.91;48.66;100247.81;6091230;23;101533;-77
2021/12/08 19:57:22;;;;;;;68.93;28.45;;;;;;;5.54;50.53;100254.78;6092813;23;98805;-76
2021/12/08 19:59:49;;;;;;;80.53;30.77;;;;;;;5.91;49.50;100249.56;6094458;23;96790;-79
2021/12/08 20:02:16;;;;;;;78.05;31.45;;;;;;;5.93;49.12;100243.41;6094914;23;96765;-77
2021/12/08 20:04:43;;;;;;;77.45;29.77;;;;;;;6.19;48.83;100245.38;6092868;23;98757;-78
2021/12/08 20:07:09;;;;;;;76.43;30.30;;;;;;;6.05;48.67;100243.97;6092801;23;98820;-77
2021/12/08 20:09:37;;;;;;;73.80;31.13;;;;;;;5.77;49.36;100256.91;6094499;23;97248;-77
2021/12/08 20:12:05;;;;;;;70.07;29.63;;;;;;;5.71;49.50;100244.75;6094147;23;97233;-79
2021/12/08 20:14:31;;;;;;;73.72;30.55;;;;;;;5.80;48.70;100249.81;6094628;23;99010;-77
2021/12/08 20:17:00;;;;;;;74.47;29.38;;;;;;;5.86;49.53;100230.44;6092846;23;99774;-78
2021/12/08 20:19:27;;;;;;;77.05;32.05;;;;;;;6.09;49.27;100235.16;6093957;23;96835;-79
2021/12/08 20:21:54;;;;;;;75.32;30.88;;;;;;;5.98;49.08;100227.53;6094711;23;97061;-77
2021/12/08 20:24:21;;;;;;;80.43;31.38;;;;;;;6.17;48.20;100215.69;6093703;23;98024;-77
2021/12/08 20:26:51;;;;;;;72.35;30.30;;;;;;;6.32;48.50;100225.78;6093868;23;98069;-78
2021/12/08 20:29:18;;;;;;;70.13;30.77;;;;;;;6.23;48.23;100230.44;6095798;23;96858;-77
2021/12/08 20:31:45;;;;;;;74.90;30.80;;;;;;;6.47;47.27;100235.03;6095896;23;97219;-79
2021/12/08 20:34:12;;;;;;;73.15;30.00;;;;;;;5.55;49.30;100235.56;6094879;23;99866;-79
2021/12/08 20:36:39;;;;;;;79.28;30.63;;;;;;;5.57;50.50;100239.88;6097104;23;97746;-80
2021/12/08 20:39:06;;;;;;;74.28;30.25;;;;;;;5.87;49.51;100247.91;6096536;23;96916;-80
2021/12/08 20:41:34;;;;;;;75.28;31.23;;;;;;;6.07;48.78;100250.06;6096695;23;96644;-78
2021/12/08 20:44:03;;;;;;;72.68;30.42;;;;;;;6.16;48.69;100265.59;6095756;23;100433;-79
2021/12/08 20:46:31;;;;;;;80.97;31.58;;;;;;;6.12;48.56;100264.78;6096039;23;99088;-78
2021/12/08 20:48:58;;;;;;;71.63;30.92;;;;;;;6.50;47.67;100273.47;6095737;23;96714;-78
2021/12/08 20:51:25;;;;;;;72.32;31.92;;;;;;;6.60;47.58;100261.81;6095599;23;96992;-78
2021/12/08 20:53:53;;;;;;;77.22;30.42;;;;;;;6.70;46.92;100265.88;6096378;23;98299;-79
2021/12/08 20:56:22;;;;;;;79.70;31.80;;;;;;;6.46;47.90;100258.69;6094772;23;100216;-80
2021/12/08 20:58:54;;;;;;;76.07;31.15;;;;;;;6.67;46.82;100253.72;6095447;23;96915;-78
2021/12/08 21:01:28;;;;;;;73.80;31.48;;;;;;;6.27;47.82;100242.56;6094361;23;96700;-78
2021/12/08 21:03:54;;;;;;;81.28;32.78;;;;;;;6.33;47.54;100234.53;6094013;23;101512;-77
2021/12/08 21:06:21;;;;;;;73.63;30.33;;;;;;;6.40;47.48;100222.97;6092627;23;98759;-79
2021/12/08 21:08:49;;;;;;;78.72;31.25;;;;;;;5.78;49.06;100225.38;6093596;23;97280;-78
2021/12/08 21:11:16;;;;;;;77.63;31.83;;;;;;;5.75;48.42;100224.59;6100382;23;97251;-79
2021/12/08 21:13:43;;;;;;;79.75;30.83;;;;;;;5.40;50.70;100220.19;6116334;23;100610;-78
2021/12/08 21:16:09;;;;;;;80.90;30.60;;;;;;;5.24;51.41;100224.06;6118292;23;97813;-77
2021/12/08 21:18:41;;;;;;;80.25;31.15;;;;;;;5.55;50.08;100231.19;6119352;23;95843;-79
2021/12/08 21:21:08;;;;;;;76.60;30.30;;;;;;;5.74;50.10;100230.75;6097328;23;96614;-79
2021/12/08 21:23:35;;;;;;;75.10;31.48;;;;;;;5.63;50.17;100231.00;6094456;23;98879;-80
2021/12/08 21:26:03;;;;;;;78.07;30.98;;;;;;;5.82;49.10;100237.53;6093835;23;98851;-79
2021/12/08 21:28:30;;;;;;;76.22;29.83;;;;;;;5.88;48.60;100240.03;6091912;23;97383;-79
2021/12/08 21:30:57;;;;;;;70.65;30.10;;;;;;;5.71;49.39;100239.53;6092745;23;96683;-79
2021/12/08 21:33:24;;;;;;;79.78;31.98;;;;;;;5.74;49.37;100238.59;6091701;23;98365;-80
2021/12/08 21:35:53;;;;;;;85.32;33.13;;;;;;;5.29;51.37;100241.38;6090116;23;99041;-80
2021/12/08 21:38:27;;;;;;;82.00;30.92;;;;;;;4.32;53.57;100241.59;6092720;23;97153;-84
2021/12/08 21:40:56;;;;;;;86.82;32.97;;;;;;;5.07;51.57;100240.09;6093591;23;96751;-81
2021/12/08 21:43:25;;;;;;;81.75;32.33;;;;;;;5.58;50.27;100238.94;6101487;23;98523;-81
2021/12/08 21:45:52;;;;;;;82.50;32.65;;;;;;;5.65;50.03;100229.19;6106627;23;96639;-79
2021/12/08 21:48:19;;;;;;;81.40;33.25;;;;;;;5.65;49.74;100231.81;6106673;23;96642;-81
2021/12/08 21:50:46;;;;;;;74.28;31.55;;;;;;;5.28;50.54;100231.78;6107119;23;96646;-80
2021/12/08 21:53:14;;;;;;;88.18;32.70;;;;;;;4.82;51.95;100230.16;6107543;23;97032;-81
2021/12/08 21:55:42;;;;;;;85.03;34.53;;;;;;;5.17;49.94;100225.94;6112754;23;97050;-80
2021/12/08 21:58:11;;;;;;;89.00;33.25;;;;;;;5.25;51.56;100223.16;6106594;23;96937;-79
2021/12/08 22:00:39;;;;;;;87.47;33.10;;;;;;;5.84;49.76;100225.22;6109946;23;96691;-80
2021/12/08 22:03:08;;;;;;;80.38;32.20;;;;;;;6.08;48.46;100218.56;6109414;23;100134;-82
2021/12/08 22:05:43;;;;;;;83.38;32.85;;;;;;;5.61;48.92;100230.16;6112425;23;99982;-81
2021/12/08 22:08:13;;;;;;;85.25;33.30;;;;;;;5.81;49.42;100229.69;6103747;23;96545;-82
2021/12/08 22:10:41;;;;;;;84.55;31.98;;;;;;;5.56;49.54;100232.03;6108023;23;96423;-81
2021/12/08 22:13:09;;;;;;;82.63;33.13;;;;;;;5.60;49.68;100246.78;6109639;23;98173;-79
2021/12/08 22:15:40;;;;;;;83.90;32.75;;;;;;;5.75;49.09;100249.06;6106102;23;99296;-80
2021/12/08 22:18:08;;;;;;;87.82;34.47;;;;;;;5.98;48.85;100252.00;6106891;23;96692;-78
2021/12/08 22:20:34;;;;;;;80.28;31.35;;;;;;;5.85;47.43;100241.81;6103584;23;96732;-81
2021/12/08 22:23:01;;;;;;;87.85;33.88;;;;;;;5.73;49.48;100252.59;6111426;23;96730;-81
2021/12/08 22:25:28;;;;;;;82.50;32.83;;;;;;;5.68;48.58;100257.09;6109760;23;99084;-80
2021/12/08 22:27:56;;;;;;;83.20;31.60;;;;;;;5.36;49.83;100244.72;6101773;23;96876;-80
2021/12/08 22:30:23;;;;;;;78.70;31.15;;;;;;;5.51;48.79;100236.53;6095990;23;96959;-80
2021/12/08 22:32:51;;;;;;;75.70;30.08;;;;;;;5.53;48.66;100246.06;6094378;23;99076;-79
2021/12/08 22:35:19;;;;;;;81.60;30.55;;;;;;;5.16;49.94;100232.94;6093833;23;98238;-80
2021/12/08 22:37:46;;;;;;;83.88;30.95;;;;;;;5.14;51.22;100232.09;6093094;23;96898;-79
2021/12/08 22:40:17;;;;;;;87.43;32.55;;;;;;;5.42;49.69;100240.22;6092409;23;96950;-79
2021/12/08 22:42:44;;;;;;;78.80;31.17;;;;;;;5.38;50.37;100237.72;6092829;23;101835;-80
2021/12/08 22:45:14;;;;;;;75.80;30.73;;;;;;;5.65;49.46;100242.28;6091090;23;99149;-80
2021/12/08 22:47:43;;;;;;;80.38;31.83;;;;;;;5.72;49.02;100249.13;6090108;23;96872;-79
2021/12/08 22:50:57;;;;;;;81.30;32.38;;;;;;;5.88;48.69;100253.16;6092138;23;96755;-83
2021/12/08 22:53:24;;;;;;;80.60;31.95;;;;;;;5.28;50.43;100259.75;6029094;23;98192;-81
2021/12/08 22:55:50;;;;;;;78.07;31.05;;;;;;;5.43;49.52;100268.16;6091882;23;98966;-80
2021/12/08 22:58:17;;;;;;;82.18;32.13;;;;;;;5.51;48.66;100260.13;6091900;23;96635;-80
2021/12/08 23:00:52;;;;;;;84.63;30.58;;;;;;;4.85;50.33;100252.81;6091988;23;96836;-79
2021/12/08 23:03:20;;;;;;;75.93;33.13;;;;;;;5.36;49.88;100250.84;6090161;23;101017;-79
2021/12/08 23:05:47;;;;;;;79.13;32.33;;;;;;;5.43;49.78;100256.81;6091473;23;98798;-79
2021/12/08 23:08:14;;;;;;;67.13;28.25;;;;;;;4.96;50.22;100261.28;6091228;23;96762;-78
2021/12/08 23:10:45;;;;;;;69.50;29.58;;;;;;;5.20;50.09;100263.41;6092241;23;96842;-78
2021/12/08 23:13:17;;;;;;;78.57;30.75;;;;;;;4.49;51.72;100253.50;6090818;23;98998;-79
2021/12/08 23:15:45;;;;;;;74.40;30.65;;;;;;;4.79;50.45;100258.16;6090715;23;99798;-80
2021/12/08 23:18:13;;;;;;;80.55;31.02;;;;;;;4.78;51.71;100264.28;6090391;23;96973;-80
2021/12/08 23:20:47;;;;;;;73.97;30.92;;;;;;;5.14;50.58;100260.91;6091940;23;96652;-79
2021/12/08 23:23:14;;;;;;;75.80;29.58;;;;;;;5.47;49.82;100271.53;6091636;23;101570;-79
2021/12/08 23:25:41;;;;;;;73.88;29.67;;;;;;;5.01;49.82;100267.28;6093253;23;98824;-79
2021/12/08 23:28:08;;;;;;;71.07;29.05;;;;;;;5.37;49.25;100267.41;6095359;23;97113;-80
2021/12/08 23:30:34;;;;;;;72.78;30.05;;;;;;;5.35;48.48;100263.97;6094642;23;97413;-79
2021/12/08 23:33:01;;;;;;;77.05;31.38;;;;;;;5.08;49.57;100257.56;6091396;23;99639;-79
2021/12/08 23:35:33;;;;;;;73.38;29.95;;;;;;;5.22;49.84;100258.13;6091901;23;98047;-78
2021/12/08 23:38:19;;;;;;;76.55;30.20;;;;;;;5.02;50.00;100263.78;6091911;23;96565;-79
2021/12/08 23:40:45;;;;;;;75.03;30.20;;;;;;;5.23;50.34;100265.09;6092662;23;97006;-79
2021/12/08 23:43:12;;;;;;;80.43;29.80;;;;;;;5.33;49.19;100263.13;6093977;23;99227;-79
2021/12/08 23:45:40;;;;;;;80.38;31.52;;;;;;;5.76;48.50;100270.91;6091566;23;101257;-79
2021/12/08 23:48:08;;;;;;;74.40;31.30;;;;;;;5.59;48.29;100259.03;6092060;23;96732;-79
2021/12/08 23:50:36;;;;;;;75.03;30.17;;;;;;;5.97;47.58;100250.28;6092568;23;96762;-81
2021/12/08 23:53:04;;;;;;;71.88;31.00;;;;;;;5.80;47.18;100254.19;6091767;23;99056;-81
2021/12/08 23:55:34;;;;;;;71.32;29.23;;;;;;;5.53;48.42;100251.31;6091666;23;98884;-80
2021/12/08 23:58:01;;;;;;;76.63;32.30;;;;;;;5.47;48.55;100247.97;6092685;23;96683;-79
